Excelsior, MN (55331)

12:34 PM CDT on September 03, 2015 (GMT -0500)
Carman Bay | | Change Station
CLOSE
Current Station
Personal Weather Station
Location: Navarre, MN
Elevation: 935 ft
Nearby Weather Stations

Elev 935 ft 44.93 °N, 93.61 °W | Updated 2 seconds ago

Mostly Cloudy
Mostly Cloudy
79.2 °F
Feels Like 83 °F
N
3.5
Wind Variable Wind from SSE
Gusts 3.5 mph

Today
High -- | Low -- °F
--% Chance of Precip.
Yesterday
High -- | Low -- °F
Precip. -- in
6:38 AM 7:48 PM
Waning Gibbous, 68% visible
Pressure 29.90 in
Visibility 7.0 miles
Clouds Overcast 1000 ft
Heat Index 83 °F
Dew Point 73 °F
Humidity 82%
Rainfall 0.00 in
Snow Depth Not available.
UV 2 out of 12
Pollen 9.30 out of 12
Air Quality Not available.
Flu Activity Not available.
SPECI KFCM 031714Z 08008KT 7SM OVC010 26/22 A2990 RMK AO2 T02560222
Pressure 29.90 in
Visibility 7.0 miles
Clouds Overcast 1000 ft
Heat Index 83 °F
Dew Point 73 °F
Humidity 82%
Rainfall 0.00 in
Snow Depth Not available.
UV 2 out of 12
Pollen 9.30 out of 12
Air Quality Not available.
Flu Activity Not available.
SPECI KFCM 031714Z 08008KT 7SM OVC010 26/22 A2990 RMK AO2 T02560222

10-Day Weather Forecast

×

Almanac

Astronomy

Sep. 03, 2015 Rise Set
Actual Time
Civil Twilight
Nautical Twilight
Astronomical Twilight
Moon
Length of Visible Light
Length of Day
Tomorrow will be .
, % of the Moon is Illuminated

Today's Extremes

State Highs State Lows

Community

WunderPhotos

Upload Photos

1,851,991 photos uploaded!

WunderBlogs® & News

Nearby

Air Quality

  Air Quality AQ Index Pollutant
Not available.

Snow Depth

Station Depth Elevation

Earthquake Activity

City Distance Mag. Time & Date
Minimum magnitude displayed is 2.5.

Coastal Water Temperatures

Place Temperature

Stations

Nearby Weather Stations

Station Location Temp. Windchill Dew Point Humidity Wind Precip. Elev Updated Type